ICT,Max TemperatureF,Mean TemperatureF,Min TemperatureF,Max Dew PointF,MeanDew PointF,Min DewpointF,Max Humidity, Mean Humidity, Min Humidity, Max Sea Level PressureIn, Mean Sea Level PressureIn, Min Sea Level PressureIn, Max VisibilityMiles, Mean VisibilityMiles, Min VisibilityMiles, Max Wind SpeedMPH, Mean Wind SpeedMPH, Max Gust SpeedMPH,PrecipitationIn, CloudCover, Events, WindDirDegrees
2013-9-1,89,84,78,77,75,73,89,74,59,29.86,29.80,29.74,6,6,6,12,5,,0.00,6,,178
2013-9-2,89,86,82,77,76,75,84,73,62,29.89,29.84,29.77,6,6,6,12,8,,0.00,6,,180
2013-9-3,93,86,80,77,76,72,89,72,52,29.86,29.81,29.74,6,6,6,12,4,,0.00,6,,200
2013-9-4,91,84,78,77,76,73,89,74,59,29.83,29.78,29.71,6,6,5,39,7,,0.00,6,Thunderstorm,246
2013-9-5,93,86,80,77,75,73,89,73,55,29.83,29.75,29.68,6,6,6,9,3,,0.00,6,,238
2013-9-6,89,83,77,77,75,68,89,75,62,29.86,29.79,29.71,6,6,5,12,5,,0.00,6,Rain-Thunderstorm,200
2013-9-7,87,81,75,79,75,72,89,79,66,29.86,29.82,29.74,6,5,4,37,4,,0.00,6,Rain-Thunderstorm,193
2013-9-8,89,81,73,77,74,68,94,80,52,29.89,29.82,29.77,6,6,3,12,2,,0.00,6,Rain-Thunderstorm,356
2013-9-9,87,81,75,77,75,73,94,80,62,29.86,29.81,29.74,6,6,3,7,3,,0.00,6,Rain-Thunderstorm,358
2013-9-10,91,84,78,79,76,73,94,79,59,29.80,29.73,29.62,6,5,1,12,3,23,0.00,6,Rain-Thunderstorm,343
2013-9-11,87,81,75,77,74,72,94,82,66,29.77,29.71,29.65,6,5,4,9,5,,0.00,6,Rain-Thunderstorm,329
2013-9-12,84,80,77,77,76,73,89,81,74,29.83,29.75,29.68,6,5,2,9,4,,0.00,6,Rain,172
2013-9-13,84,81,78,77,76,75,89,82,74,29.83,29.78,29.71,6,6,4,12,7,,0.00,6,Rain-Thunderstorm,223
2013-9-14,86,82,78,77,75,73,94,79,70,29.83,29.76,29.71,6,6,1,12,6,,0.00,6,Rain,236
2013-9-15,89,84,77,77,74,72,94,73,62,29.80,29.74,29.68,6,6,4,14,7,,0.00,6,Rain-Thunderstorm,229
2013-9-16,86,82,77,75,75,73,94,79,66,29.83,29.76,29.68,6,6,4,14,5,,0.00,6,Rain,280
2013-9-17,89,84,80,75,74,72,84,73,59,29.80,29.75,29.68,6,6,6,9,5,,0.00,6,,285
2013-9-18,89,84,75,77,75,73,94,77,66,29.80,29.73,29.65,6,6,4,9,4,,0.00,6,Rain,279
2013-9-19,84,80,75,75,73,72,94,81,70,29.74,29.67,29.62,6,5,4,9,5,,0.00,6,Rain,301
2013-9-20,82,80,77,75,74,72,89,84,74,29.71,29.67,29.62,6,5,4,12,6,,0.00,6,Rain,300
2013-9-21,87,82,78,75,73,72,84,73,62,29.74,29.69,29.65,6,6,6,14,8,,0.00,6,,270
2013-9-22,89,83,77,77,74,73,94,74,59,29.71,29.68,29.62,6,6,4,14,8,,0.00,6,Rain,277
2013-9-23,86,80,75,75,75,73,94,83,66,29.74,29.68,29.62,6,6,4,12,7,,0.00,6,Rain,241
2013-9-24,86,82,77,77,75,73,94,81,70,29.80,29.71,29.65,6,6,4,14,7,,0.00,6,Rain,265
2013-9-25,87,81,75,77,74,72,94,76,62,29.86,29.79,29.74,6,6,4,14,8,,0.00,6,Rain,265
2013-9-26,91,86,80,77,74,70,84,71,52,29.86,29.81,29.74,6,6,4,12,6,,0.00,6,,231
2013-9-27,89,84,80,77,74,73,89,73,59,29.83,29.78,29.71,6,5,4,12,3,,0.00,6,,272
2013-9-28,91,86,80,77,73,70,84,72,52,29.83,29.76,29.68,6,6,4,9,4,,0.00,6,Rain,327
2013-9-29,87,80,73,77,75,72,94,81,62,29.77,29.72,29.65,6,5,0,12,4,,0.00,6,Rain-Thunderstorm,355
2013-9-30,87,80,73,75,74,72,94,83,62,29.77,29.70,29.62,6,4,0,12,3,,0.00,6,Rain-Thunderstorm,338